createdAt,value
2019-01-06T00:02:29.867Z,98071.48
2019-01-06T00:05:26.759Z,98069.34
2019-01-06T00:08:20.898Z,98075.19
2019-01-06T00:11:07.602Z,98073.87
2019-01-06T00:14:01.651Z,98068.17
2019-01-06T00:16:48.454Z,98070.89
2019-01-06T00:19:35.337Z,98065.02
2019-01-06T00:22:22.068Z,98062.24
2019-01-06T00:25:16.216Z,98070.20
2019-01-06T00:28:04.284Z,98066.91
2019-01-06T00:30:52.149Z,98073.59
2019-01-06T00:33:38.972Z,98080.91
2019-01-06T00:36:30.522Z,98078.52
2019-01-06T00:39:17.023Z,98087.31
2019-01-06T00:42:08.172Z,98084.56
2019-01-06T00:45:04.987Z,98092.23
2019-01-06T00:47:53.626Z,98095.10
2019-01-06T00:50:40.103Z,98099.49
2019-01-06T00:53:34.247Z,98105.07
2019-01-06T00:56:21.007Z,98109.02
2019-01-06T00:59:07.867Z,98105.50
2019-01-06T01:01:58.940Z,98105.86
2019-01-06T01:04:46.992Z,98111.44
2019-01-06T01:07:33.837Z,98101.64
2019-01-06T01:10:27.813Z,98094.80
2019-01-06T01:13:15.911Z,98099.22
2019-01-06T01:16:02.508Z,98105.07
2019-01-06T01:18:44.028Z,98100.88
2019-01-06T01:21:33.068Z,98107.56
2019-01-06T01:24:19.778Z,98107.02
2019-01-06T01:27:06.220Z,98106.37
2019-01-06T01:30:05.637Z,98113.43
2019-01-06T01:32:49.099Z,98109.97
2019-01-06T01:35:40.094Z,98121.78
2019-01-06T01:38:26.648Z,98114.33
2019-01-06T01:41:06.099Z,98114.23
2019-01-06T01:43:51.859Z,98117.53
2019-01-06T01:46:49.328Z,98128.64
2019-01-06T01:49:36.053Z,98122.52
2019-01-06T01:52:29.948Z,98125.31
2019-01-06T01:55:16.484Z,98131.95
2019-01-06T01:58:02.973Z,98134.83
2019-01-06T02:00:51.049Z,98125.55
2019-01-06T02:03:45.205Z,98125.39
2019-01-06T02:06:42.451Z,98129.92
2019-01-06T02:09:30.531Z,98128.31
2019-01-06T02:12:24.557Z,98136.28
2019-01-06T02:15:18.483Z,98123.69
2019-01-06T02:18:16.916Z,98122.56
2019-01-06T02:21:07.059Z,98122.41
2019-01-06T02:24:00.734Z,98123.61
2019-01-06T02:26:49.642Z,98123.69
2019-01-06T02:29:40.785Z,98137.44
2019-01-06T02:32:41.028Z,98140.59
2019-01-06T02:35:38.189Z,98141.13
2019-01-06T02:38:35.032Z,98145.28
2019-01-06T02:41:21.865Z,98140.30
2019-01-06T02:44:08.574Z,98141.08
2019-01-06T02:47:11.616Z,98147.98
2019-01-06T02:50:06.929Z,98140.38
2019-01-06T02:53:09.480Z,98136.72
2019-01-06T02:56:12.480Z,98141.86
2019-01-06T02:58:59.185Z,98134.39
2019-01-06T03:01:46.046Z,98140.09
2019-01-06T03:04:37.199Z,98132.57
2019-01-06T03:07:27.394Z,98135.05
2019-01-06T03:10:15.444Z,98121.80
2019-01-06T03:13:11.440Z,98126.53
2019-01-06T03:15:57.905Z,98122.23
2019-01-06T03:19:04.194Z,98112.73
2019-01-06T03:21:50.821Z,98121.18
2019-01-06T03:24:47.625Z,98111.29
2019-01-06T03:27:37.383Z,98103.94
2019-01-06T03:30:19.069Z,98100.91
2019-01-06T03:33:16.258Z,98106.27
2019-01-06T03:36:02.772Z,98102.66
2019-01-06T03:38:44.856Z,98108.37
2019-01-06T03:41:50.856Z,98102.45
2019-01-06T03:44:44.921Z,98109.14
2019-01-06T03:47:31.397Z,98100.13
2019-01-06T03:50:17.835Z,98105.27
2019-01-06T03:53:04.506Z,98104.72
2019-01-06T03:55:51.294Z,98106.27
2019-01-06T03:58:45.185Z,98093.88
2019-01-06T04:01:36.407Z,98090.63
2019-01-06T04:04:22.918Z,98086.09
2019-01-06T04:07:09.450Z,98082.29
2019-01-06T04:09:56.135Z,98086.59
2019-01-06T04:12:50.315Z,98079.02
2019-01-06T04:15:38.382Z,98075.44
2019-01-06T04:18:35.498Z,98083.94
2019-01-06T04:21:16.267Z,98083.94
2019-01-06T04:24:03.332Z,98083.55
2019-01-06T04:26:51.386Z,98077.46
2019-01-06T04:29:35.010Z,98080.46
2019-01-06T04:32:31.983Z,98082.02
2019-01-06T04:35:28.927Z,98090.83
2019-01-06T04:38:32.955Z,98085.05
2019-01-06T04:41:23.831Z,98082.94
2019-01-06T04:44:29.830Z,98069.18
2019-01-06T04:47:23.732Z,98074.81
2019-01-06T04:50:23.740Z,98071.50
2019-01-06T04:53:26.799Z,98075.66
2019-01-06T04:56:29.970Z,98069.78
2019-01-06T04:59:16.451Z,98069.12
2019-01-06T05:02:19.776Z,98072.44
2019-01-06T05:05:06.600Z,98067.20
2019-01-06T05:07:54.651Z,98073.16
2019-01-06T05:10:41.206Z,98076.20
2019-01-06T05:13:30.667Z,98074.88
2019-01-06T05:16:17.185Z,98078.09
2019-01-06T05:18:57.438Z,98072.44
2019-01-06T05:21:45.486Z,98078.79
2019-01-06T05:24:45.350Z,98079.86
2019-01-06T05:27:47.632Z,98078.19
2019-01-06T05:30:34.036Z,98083.59
2019-01-06T05:33:38.198Z,98085.05
2019-01-06T05:36:31.180Z,98083.59
2019-01-06T05:39:17.590Z,98085.05
2019-01-06T05:42:08.808Z,98083.61
2019-01-06T05:44:46.410Z,98085.42
2019-01-06T05:47:34.464Z,98079.34
2019-01-06T05:50:22.369Z,98083.34
2019-01-06T05:53:09.695Z,98086.49
2019-01-06T05:56:00.592Z,98085.27
2019-01-06T05:58:57.637Z,98081.99
2019-01-06T06:01:44.332Z,98078.35
2019-01-06T06:04:30.994Z,98087.20
2019-01-06T06:07:34.163Z,98083.94
2019-01-06T06:10:34.079Z,98083.32
2019-01-06T06:13:27.968Z,98088.52
2019-01-06T06:16:14.471Z,98094.83
2019-01-06T06:19:01.143Z,98094.33
2019-01-06T06:21:49.318Z,98098.78
2019-01-06T06:24:36.121Z,98095.55
2019-01-06T06:27:39.363Z,98099.52
2019-01-06T06:30:30.231Z,98098.08
2019-01-06T06:33:24.176Z,98100.45
2019-01-06T06:36:02.911Z,98096.66
2019-01-06T06:38:53.742Z,98104.04
2019-01-06T06:41:35.377Z,98108.80
2019-01-06T06:44:35.577Z,98099.13
2019-01-06T06:47:38.591Z,98108.87
2019-01-06T06:50:25.451Z,98111.02
2019-01-06T06:53:12.183Z,98104.09
2019-01-06T06:55:58.872Z,98114.66
2019-01-06T06:58:58.920Z,98115.77
2019-01-06T07:02:42.851Z,98114.55
2019-01-06T07:05:28.907Z,98124.99
2019-01-06T07:08:19.778Z,98126.27
2019-01-06T07:11:05.008Z,98127.44
2019-01-06T07:13:53.180Z,98131.64
2019-01-06T07:17:20.303Z,98135.78
2019-01-06T07:20:08.383Z,98143.89
2019-01-06T07:23:08.701Z,98145.34
2019-01-06T07:25:55.402Z,98148.22
2019-01-06T07:28:42.218Z,98145.28
2019-01-06T07:31:26.532Z,98154.68
2019-01-06T07:34:20.679Z,98159.48
2019-01-06T07:37:11.470Z,98153.90
2019-01-06T07:39:57.951Z,98160.20
2019-01-06T07:42:42.180Z,98162.48
2019-01-06T07:45:50.315Z,98161.77
2019-01-06T07:48:37.073Z,98165.79
2019-01-06T07:51:19.495Z,98167.46
2019-01-06T07:54:11.991Z,98171.75
2019-01-06T07:57:09.237Z,98173.36
2019-01-06T08:00:03.542Z,98180.38
2019-01-06T08:02:59.863Z,98184.75
2019-01-06T08:05:46.377Z,98188.73
2019-01-06T08:08:36.811Z,98190.61
2019-01-06T08:11:25.086Z,98187.02
2019-01-06T08:14:11.868Z,98198.19
2019-01-06T08:16:58.540Z,98199.91
2019-01-06T08:19:55.811Z,98203.22
2019-01-06T08:22:42.490Z,98206.11
2019-01-06T08:25:34.429Z,98212.50
2019-01-06T08:28:22.490Z,98217.16
2019-01-06T08:31:09.029Z,98217.09
2019-01-06T08:33:55.725Z,98219.05
2019-01-06T08:36:52.388Z,98211.02
2019-01-06T08:39:38.878Z,98230.36
2019-01-06T08:42:25.662Z,98228.55
2019-01-06T08:45:12.227Z,98233.25
2019-01-06T08:47:58.955Z,98228.34
2019-01-06T08:50:59.115Z,98239.00
2019-01-06T08:53:39.616Z,98242.52
2019-01-06T08:56:26.259Z,98249.61
2019-01-06T08:59:13.400Z,98238.52
2019-01-06T09:02:01.471Z,98243.77
2019-01-06T09:04:50.912Z,98246.74
2019-01-06T09:07:37.424Z,98239.89
2019-01-06T09:10:37.466Z,98256.03
2019-01-06T09:13:31.678Z,98250.88
2019-01-06T09:16:18.208Z,98253.81
2019-01-06T09:19:04.956Z,98252.20
2019-01-06T09:21:55.527Z,98262.21
2019-01-06T09:24:42.347Z,98262.50
2019-01-06T09:27:48.586Z,98255.48
2019-01-06T09:30:34.903Z,98260.41
2019-01-06T09:33:28.954Z,98264.11
2019-01-06T09:36:06.008Z,98253.94
2019-01-06T09:38:56.954Z,98253.81
2019-01-06T09:41:43.475Z,98256.75
2019-01-06T09:44:31.503Z,98268.83
2019-01-06T09:47:28.400Z,98263.39
2019-01-06T09:50:16.464Z,98272.20
2019-01-06T09:53:22.551Z,98268.59
2019-01-06T09:56:22.712Z,98264.72
2019-01-06T09:59:10.768Z,98267.93
2019-01-06T10:01:57.480Z,98268.09
2019-01-06T10:05:03.806Z,98262.25
2019-01-06T10:07:51.247Z,98261.06
2019-01-06T10:10:37.531Z,98257.36
2019-01-06T10:13:24.072Z,98267.05
2019-01-06T10:16:18.234Z,98255.66
2019-01-06T10:18:58.399Z,98261.23
2019-01-06T10:21:46.468Z,98258.27
2019-01-06T10:24:31.103Z,98260.25
2019-01-06T10:30:17.396Z,98251.28
2019-01-06T10:33:11.651Z,98256.22
2019-01-06T10:35:58.161Z,98254.17
2019-01-06T10:38:55.145Z,98257.66
2019-01-06T10:41:49.320Z,98260.85
2019-01-06T10:44:55.575Z,98258.58
2019-01-06T10:47:42.136Z,98256.14
2019-01-06T10:50:42.444Z,98256.50
2019-01-06T10:53:25.435Z,98254.44
2019-01-06T10:56:09.894Z,98257.33
2019-01-06T10:59:09.879Z,98249.68
2019-01-06T11:02:13.342Z,98248.86
2019-01-06T11:05:15.170Z,98246.52
2019-01-06T11:08:03.254Z,98248.49
2019-01-06T11:10:49.902Z,98250.28
2019-01-06T11:13:33.255Z,98239.83
2019-01-06T11:16:21.302Z,98249.38
2019-01-06T11:19:08.119Z,98241.85
2019-01-06T11:21:54.637Z,98241.59
2019-01-06T11:24:41.417Z,98243.00
2019-01-06T11:27:28.309Z,98242.00
2019-01-06T11:30:19.415Z,98234.14
2019-01-06T11:33:12.446Z,98242.08
2019-01-06T11:35:59.247Z,98228.92
2019-01-06T11:38:56.142Z,98235.59
2019-01-06T11:41:49.261Z,98238.25
2019-01-06T11:44:42.854Z,98232.58
2019-01-06T11:47:33.132Z,98237.22
2019-01-06T11:50:21.217Z,98230.64
2019-01-06T11:53:16.908Z,98235.27
2019-01-06T11:56:03.647Z,98232.67
2019-01-06T11:58:54.771Z,98229.78
2019-01-06T12:01:57.959Z,98229.36
2019-01-06T12:04:46.034Z,98226.59
2019-01-06T12:07:37.137Z,98225.32
2019-01-06T12:10:25.690Z,98220.21
2019-01-06T12:13:12.562Z,98224.09
2019-01-06T12:16:03.460Z,98224.20
2019-01-06T12:18:54.046Z,98223.72
2019-01-06T12:21:42.121Z,98227.30
2019-01-06T12:24:42.147Z,98224.43
2019-01-06T12:27:20.527Z,98230.77
2019-01-06T12:30:11.364Z,98225.95
2019-01-06T12:32:56.262Z,98229.31
2019-01-06T12:35:55.146Z,98237.83
2019-01-06T12:38:50.954Z,98230.86
2019-01-06T12:41:37.776Z,98231.36
2019-01-06T12:44:24.472Z,98237.42
2019-01-06T12:47:20.425Z,98239.60
2019-01-06T12:50:11.628Z,98244.75
2019-01-06T12:53:02.930Z,98252.02
2019-01-06T12:56:09.104Z,98249.73
2019-01-06T12:58:55.690Z,98247.49
2019-01-06T13:01:51.362Z,98247.03
2019-01-06T13:04:41.615Z,98246.80
2019-01-06T13:07:28.497Z,98252.88
2019-01-06T13:10:19.374Z,98249.58
2019-01-06T13:13:19.718Z,98253.67
2019-01-06T13:16:07.767Z,98255.39
2019-01-06T13:18:58.715Z,98259.91
2019-01-06T13:21:44.836Z,98257.98
2019-01-06T13:24:31.382Z,98267.50
2019-01-06T13:27:18.199Z,98267.33
2019-01-06T13:30:09.050Z,98263.34
2019-01-06T13:32:57.118Z,98269.53
2019-01-06T13:36:03.219Z,98272.48
2019-01-06T13:38:57.110Z,98272.36
2019-01-06T13:42:02.828Z,98273.81
2019-01-06T13:44:49.281Z,98271.44
2019-01-06T13:47:36.046Z,98271.35
2019-01-06T13:50:16.897Z,98274.92
2019-01-06T13:52:59.789Z,98274.31
2019-01-06T13:55:46.343Z,98281.48
2019-01-06T13:58:30.738Z,98285.92
2019-01-06T14:01:17.469Z,98284.81
2019-01-06T14:04:12.369Z,98287.75
2019-01-06T14:06:58.874Z,98285.42
2019-01-06T14:10:04.920Z,98285.20
2019-01-06T14:12:51.522Z,98294.11
2019-01-06T14:15:46.058Z,98288.16
2019-01-06T14:18:40.009Z,98294.61
2019-01-06T14:21:26.801Z,98298.98
2019-01-06T14:24:09.620Z,98301.80
2019-01-06T14:27:12.607Z,98308.33
2019-01-06T14:29:54.198Z,98305.41
2019-01-06T14:32:48.063Z,98305.14
2019-01-06T14:35:29.024Z,98321.94
2019-01-06T14:38:20.927Z,98310.27
2019-01-06T14:41:03.217Z,98313.97
2019-01-06T14:43:51.272Z,98325.02
2019-01-06T14:46:38.809Z,98323.36
2019-01-06T14:49:32.696Z,98324.33
2019-01-06T14:52:22.763Z,98331.42
2019-01-06T14:55:23.054Z,98334.61
2019-01-06T14:58:05.066Z,98321.84
2019-01-06T15:00:54.683Z,98316.20
2019-01-06T15:03:51.769Z,98320.19
2019-01-06T15:06:38.315Z,98320.19
2019-01-06T15:09:41.593Z,98321.88
2019-01-06T15:12:29.693Z,98317.41
2019-01-06T15:15:16.485Z,98316.58
2019-01-06T15:18:06.729Z,98318.69
2019-01-06T15:20:53.238Z,98316.91
2019-01-06T15:23:44.465Z,98318.86
2019-01-06T15:26:47.550Z,98320.89
2019-01-06T15:29:50.689Z,98322.55
2019-01-06T15:32:38.764Z,98324.91
2019-01-06T15:35:31.612Z,98328.55
2019-01-06T15:38:37.610Z,98333.53
2019-01-06T15:41:40.241Z,98328.27
2019-01-06T15:44:36.029Z,98330.27
2019-01-06T15:47:23.408Z,98335.56
2019-01-06T15:50:20.418Z,98329.67
2019-01-06T15:53:14.779Z,98322.38
2019-01-06T15:56:11.970Z,98321.42
2019-01-06T15:58:58.453Z,98332.40
2019-01-06T16:01:44.985Z,98334.31
2019-01-06T16:04:25.534Z,98338.30
2019-01-06T16:07:12.113Z,98341.87
2019-01-06T16:09:58.861Z,98349.37
2019-01-06T16:12:49.854Z,98349.87
2019-01-06T16:15:36.737Z,98353.95
2019-01-06T16:18:33.985Z,98346.33
2019-01-06T16:21:30.197Z,98356.08
2019-01-06T16:24:27.088Z,98352.95
2019-01-06T16:27:13.637Z,98352.55
2019-01-06T16:30:01.644Z,98350.23
2019-01-06T16:32:58.902Z,98352.95
2019-01-06T16:35:54.653Z,98353.29
2019-01-06T16:38:41.296Z,98353.58
2019-01-06T16:41:41.515Z,98355.24
2019-01-06T16:44:28.802Z,98352.69
2019-01-06T16:47:15.589Z,98353.38
2019-01-06T16:50:02.278Z,98347.72
2019-01-06T16:52:49.231Z,98341.48
2019-01-06T16:55:35.711Z,98346.59
2019-01-06T16:58:23.800Z,98350.87
2019-01-06T17:01:10.736Z,98346.69
2019-01-06T17:03:57.182Z,98342.08
2019-01-06T17:06:51.236Z,98337.00
2019-01-06T17:09:38.053Z,98339.87
2019-01-06T17:12:26.158Z,98343.25
2019-01-06T17:15:20.140Z,98340.65
2019-01-06T17:18:01.669Z,98346.98
2019-01-06T17:20:55.754Z,98350.13
2019-01-06T17:23:42.499Z,98354.58
2019-01-06T17:26:29.333Z,98354.25
2019-01-06T17:29:27.243Z,98355.86
2019-01-06T17:32:24.146Z,98353.83
2019-01-06T17:35:11.383Z,98347.53
2019-01-06T17:38:02.578Z,98346.56
2019-01-06T17:40:56.700Z,98342.70
2019-01-06T17:43:53.883Z,98345.02
2019-01-06T17:46:56.981Z,98342.70
2019-01-06T17:49:57.158Z,98346.87
2019-01-06T17:52:48.329Z,98348.41
2019-01-06T17:55:34.883Z,98352.11
2019-01-06T17:58:25.783Z,98349.82
2019-01-06T18:01:25.766Z,98350.81
2019-01-06T18:04:13.856Z,98351.14
2019-01-06T18:07:00.636Z,98349.52
2019-01-06T18:09:48.697Z,98348.80
2019-01-06T18:12:36.698Z,98350.54
2019-01-06T18:15:16.112Z,98351.53
2019-01-06T18:18:07.889Z,98359.45
2019-01-06T18:20:50.650Z,98355.81
2019-01-06T18:23:50.989Z,98364.77
2019-01-06T18:26:38.753Z,98362.47
2019-01-06T18:29:25.850Z,98358.62
2019-01-06T18:32:27.116Z,98356.15
2019-01-06T18:35:14.097Z,98354.48
2019-01-06T18:37:59.391Z,98352.80
2019-01-06T18:40:44.463Z,98356.45
2019-01-06T18:43:32.992Z,98359.44
2019-01-06T18:46:20.024Z,98360.77
2019-01-06T18:49:07.035Z,98362.39
2019-01-06T18:51:55.246Z,98365.40
2019-01-06T18:54:42.260Z,98365.06
2019-01-06T18:57:44.722Z,98371.97
2019-01-06T19:00:32.892Z,98376.78
2019-01-06T19:03:23.829Z,98374.32
2019-01-06T19:06:12.617Z,98372.47
2019-01-06T19:08:53.382Z,98370.52
2019-01-06T19:11:40.154Z,98378.47
2019-01-06T19:14:28.283Z,98375.65
2019-01-06T19:17:16.453Z,98380.59
2019-01-06T19:20:06.493Z,98386.23
2019-01-06T19:23:07.331Z,98387.75
2019-01-06T19:25:58.809Z,98381.95
2019-01-06T19:28:45.902Z,98383.49
2019-01-06T19:31:32.592Z,98386.06
2019-01-06T19:34:33.387Z,98394.21
2019-01-06T19:37:20.053Z,98383.44
2019-01-06T19:40:15.856Z,98398.69
2019-01-06T19:43:00.684Z,98398.84
2019-01-06T19:45:47.986Z,98402.02
2019-01-06T19:48:33.733Z,98399.52
2019-01-06T19:51:23.920Z,98402.16
2019-01-06T19:54:21.003Z,98403.52
2019-01-06T19:57:18.386Z,98399.87
2019-01-06T20:00:02.529Z,98399.51
2019-01-06T20:02:50.866Z,98393.90
2019-01-06T20:05:37.612Z,98395.23
2019-01-06T20:08:22.924Z,98388.28
2019-01-06T20:11:09.793Z,98388.78
2019-01-06T20:14:10.066Z,98390.28
2019-01-06T20:17:18.050Z,98393.59
2019-01-06T20:20:09.515Z,98385.00
2019-01-06T20:23:00.662Z,98391.13
2019-01-06T20:25:47.725Z,98385.45
2019-01-06T20:28:36.033Z,98391.25
2019-01-06T20:31:33.283Z,98387.58
2019-01-06T20:34:20.558Z,98387.60
2019-01-06T20:37:27.130Z,98391.27
2019-01-06T20:40:18.403Z,98390.61
2019-01-06T20:43:06.586Z,98397.52
2019-01-06T20:45:53.960Z,98395.58
2019-01-06T20:48:54.270Z,98396.55
2019-01-06T20:51:43.162Z,98395.58
2019-01-06T20:54:43.581Z,98398.05
2019-01-06T20:57:49.707Z,98398.56
2019-01-06T21:00:36.304Z,98399.39
2019-01-06T21:03:39.313Z,98399.56
2019-01-06T21:06:34.419Z,98401.17
2019-01-06T21:09:37.703Z,98397.71
2019-01-06T21:12:24.821Z,98398.89
2019-01-06T21:15:11.781Z,98391.61
2019-01-06T21:18:00.204Z,98390.77
2019-01-06T21:20:48.444Z,98389.28
2019-01-06T21:23:35.040Z,98396.22
2019-01-06T21:26:21.793Z,98396.75
2019-01-06T21:29:07.799Z,98395.11
2019-01-06T21:31:54.332Z,98395.25
2019-01-06T21:34:47.628Z,98392.58
2019-01-06T21:37:36.710Z,98395.39
2019-01-06T21:40:33.983Z,98395.23
2019-01-06T21:43:20.793Z,98397.05
2019-01-06T21:46:22.951Z,98400.53
2019-01-06T21:49:15.832Z,98403.66
2019-01-06T21:52:02.686Z,98398.88
2019-01-06T21:54:58.370Z,98394.20
2019-01-06T21:58:02.008Z,98394.88
2019-01-06T22:00:41.280Z,98391.55
2019-01-06T22:03:36.253Z,98391.27
2019-01-06T22:06:25.859Z,98397.56
2019-01-06T22:09:13.742Z,98398.26
2019-01-06T22:12:20.088Z,98394.75
2019-01-06T22:15:17.454Z,98396.24
2019-01-06T22:18:06.427Z,98391.27
2019-01-06T22:20:53.858Z,98395.23
2019-01-06T22:24:00.522Z,98395.58
2019-01-06T22:26:51.514Z,98391.75
2019-01-06T22:29:41.239Z,98395.23
2019-01-06T22:32:28.074Z,98391.44
2019-01-06T22:35:29.017Z,98399.20
2019-01-06T22:38:15.513Z,98389.27
2019-01-06T22:41:15.681Z,98396.22
2019-01-06T22:43:58.696Z,98399.53
2019-01-06T22:46:46.578Z,98393.73
2019-01-06T22:49:53.322Z,98395.58
2019-01-06T22:52:41.737Z,98395.03
2019-01-06T22:55:38.750Z,98397.55
2019-01-06T22:58:30.742Z,98391.91
2019-01-06T23:01:16.549Z,98390.84
2019-01-06T23:03:59.925Z,98395.06
2019-01-06T23:06:46.627Z,98394.39
2019-01-06T23:09:38.335Z,98396.08
2019-01-06T23:12:22.252Z,98398.56
2019-01-06T23:15:24.149Z,98399.87
2019-01-06T23:18:18.601Z,98393.57
2019-01-06T23:21:10.609Z,98397.23
2019-01-06T23:23:58.344Z,98398.06
2019-01-06T23:26:46.570Z,98401.52
2019-01-06T23:29:35.524Z,98397.88
2019-01-06T23:32:22.873Z,98396.58
2019-01-06T23:35:26.384Z,98396.86
2019-01-06T23:38:15.406Z,98398.19
2019-01-06T23:41:15.082Z,98395.01
2019-01-06T23:44:15.165Z,98393.23
2019-01-06T23:47:08.984Z,98400.03
2019-01-06T23:50:03.781Z,98396.55
2019-01-06T23:52:58.840Z,98393.37
2019-01-06T23:55:46.065Z,98393.55
2019-01-06T23:58:34.136Z,98394.38
